Time;durP1;ratioP1;P1;durP2;ratioP2;P2;SDS_P1;SDS_P2;PMS_P1;PMS_P2;Temp;Humidity;BMP_temperature;BMP_pressure;BME280_temperature;BME280_humidity;BME280_pressure;Samples;Min_cycle;Max_cycle;Signal;HPM_P1;HPM_P2
2023/06/15 00:01:38;;;;;;;9.48;9.18;;;16.10;99.90;;;;;;4905213;29;20292;-86
2023/06/15 00:04:08;;;;;;;9.50;9.20;;;16.10;99.90;;;;;;4897518;29;20297;-86
2023/06/15 00:06:37;;;;;;;9.57;9.27;;;16.10;99.90;;;;;;4900435;29;20327;-86
2023/06/15 00:09:16;;;;;;;9.40;9.10;;;16.00;99.90;;;;;;4886554;29;20229;-85
2023/06/15 00:11:45;;;;;;;9.38;9.07;;;16.00;99.90;;;;;;4905396;29;20205;-85
2023/06/15 00:14:14;;;;;;;9.63;9.32;;;16.00;99.90;;;;;;4912008;28;20221;-84
2023/06/15 00:19:24;;;;;;;9.73;9.43;;;15.90;99.90;;;;;;4904573;29;20250;-86
2023/06/15 00:21:55;;;;;;;9.60;9.30;;;15.90;99.90;;;;;;4900472;29;20237;-86
2023/06/15 00:24:25;;;;;;;9.35;9.05;;;15.90;99.90;;;;;;4874894;29;20298;-86
2023/06/15 00:26:53;;;;;;;9.77;9.48;;;15.80;99.90;;;;;;4904664;29;20311;-86
2023/06/15 00:29:21;;;;;;;9.48;9.18;;;15.70;99.90;;;;;;4904525;29;20243;-86
2023/06/15 00:31:50;;;;;;;9.45;9.15;;;15.70;99.90;;;;;;4889552;29;20232;-86
2023/06/15 00:34:21;;;;;;;9.70;9.40;;;15.70;99.90;;;;;;4882215;29;20233;-86
2023/06/15 00:36:50;;;;;;;9.80;9.50;;;15.60;99.90;;;;;;4881791;29;20240;-86
2023/06/15 00:39:19;;;;;;;9.68;9.38;;;15.60;99.90;;;;;;4896728;29;20237;-86
2023/06/15 00:41:58;;;;;;;9.32;9.05;;;15.60;99.90;;;;;;4886049;29;20293;-86
2023/06/15 00:44:26;;;;;;;9.73;9.43;;;15.50;99.90;;;;;;4901363;29;20246;-86
2023/06/15 00:46:57;;;;;;;9.77;9.48;;;15.40;99.90;;;;;;4887054;29;20298;-85
2023/06/15 00:49:26;;;;;;;9.60;9.30;;;15.40;99.90;;;;;;4897052;29;20232;-86
2023/06/15 00:51:55;;;;;;;9.80;9.50;;;15.30;99.90;;;;;;4888884;29;20225;-86
2023/06/15 00:54:25;;;;;;;9.10;8.90;;;15.20;99.90;;;;;;4876112;29;20253;-86
2023/06/15 00:57:03;;;;;;;9.85;9.55;;;15.20;99.90;;;;;;4904665;29;20262;-85
2023/06/15 00:59:32;;;;;;;9.65;9.35;;;15.20;99.90;;;;;;4914327;29;20236;-85
2023/06/15 01:02:03;;;;;;;9.70;9.40;;;15.10;99.90;;;;;;4911111;29;20297;-84
2023/06/15 01:04:31;;;;;;;10.10;9.80;;;15.10;99.90;;;;;;4913642;29;20243;-85
2023/06/15 01:07:01;;;;;;;9.80;9.50;;;15.10;99.90;;;;;;4918682;29;20256;-84
2023/06/15 01:09:31;;;;;;;10.20;9.90;;;15.00;99.90;;;;;;4921360;29;20291;-85
2023/06/15 01:12:11;;;;;;;9.75;9.45;;;15.00;99.90;;;;;;4912353;29;20255;-86
2023/06/15 01:14:39;;;;;;;9.40;9.10;;;15.00;99.90;;;;;;4908484;29;20236;-85
2023/06/15 01:17:16;;;;;;;9.63;9.32;;;14.90;99.90;;;;;;4907715;29;20323;-85
2023/06/15 01:19:57;;;;;;;9.68;9.38;;;14.90;99.90;;;;;;4907442;29;20303;-85
2023/06/15 01:22:41;;;;;;;10.13;9.82;;;14.80;99.90;;;;;;4888767;29;20324;-86
2023/06/15 01:25:26;;;;;;;9.70;9.40;;;14.80;99.90;;;;;;4870143;29;20304;-85
2023/06/15 01:28:15;;;;;;;9.90;9.60;;;14.70;99.90;;;;;;4893800;29;20282;-85
2023/06/15 01:30:45;;;;;;;10.05;9.75;;;14.70;99.90;;;;;;4898934;29;20247;-85
2023/06/15 01:33:14;;;;;;;10.10;9.80;;;14.70;99.90;;;;;;4906755;29;20236;-86
2023/06/15 01:35:44;;;;;;;10.07;9.77;;;14.60;99.90;;;;;;4904509;29;20237;-84
2023/06/15 01:38:13;;;;;;;9.63;9.32;;;14.60;99.90;;;;;;4920001;28;20228;-84
2023/06/15 01:40:44;;;;;;;9.93;9.63;;;14.60;99.90;;;;;;4914140;28;20236;-83
2023/06/15 01:43:22;;;;;;;9.70;9.40;;;14.50;99.90;;;;;;4906637;29;20229;-85
2023/06/15 01:45:52;;;;;;;10.00;9.70;;;14.50;99.90;;;;;;4889692;29;20292;-86
2023/06/15 01:48:21;;;;;;;9.63;9.32;;;14.40;99.90;;;;;;4893449;29;20236;-85
2023/06/15 01:50:50;;;;;;;9.70;9.40;;;14.40;99.90;;;;;;4891826;29;20258;-84
2023/06/15 01:53:18;;;;;;;9.60;9.30;;;14.30;99.90;;;;;;4899905;29;20328;-85
2023/06/15 01:55:47;;;;;;;9.98;9.68;;;14.30;99.90;;;;;;4877636;29;20249;-86
2023/06/15 01:58:26;;;;;;;9.82;9.52;;;14.20;99.90;;;;;;4884155;29;20225;-83
2023/06/15 02:00:55;;;;;;;9.65;9.35;;;14.20;99.90;;;;;;4888065;29;20291;-84
2023/06/15 02:03:25;;;;;;;10.00;9.70;;;14.20;99.90;;;;;;4889999;29;20229;-86
2023/06/15 02:05:54;;;;;;;9.77;9.48;;;14.10;99.90;;;;;;4888508;29;20270;-84
2023/06/15 02:08:23;;;;;;;9.65;9.35;;;14.10;99.90;;;;;;4880145;29;20293;-85
2023/06/15 02:10:54;;;;;;;9.98;9.68;;;14.10;99.90;;;;;;4886954;29;20229;-85
2023/06/15 02:13:25;;;;;;;10.65;10.35;;;14.00;99.90;;;;;;4884745;29;20254;-86
2023/06/15 02:15:54;;;;;;;10.05;9.75;;;13.90;99.90;;;;;;4876907;29;20228;-86
2023/06/15 02:18:23;;;;;;;9.60;9.30;;;13.90;99.90;;;;;;4890627;29;20359;-86
2023/06/15 02:20:52;;;;;;;9.70;9.40;;;13.90;99.90;;;;;;4898761;29;20239;-86
2023/06/15 02:23:22;;;;;;;10.10;9.80;;;13.90;99.90;;;;;;4906162;29;20292;-86
2023/06/15 02:25:51;;;;;;;10.00;9.70;;;13.80;99.90;;;;;;4906126;29;20300;-86
2023/06/15 02:28:21;;;;;;;10.10;9.80;;;13.80;99.90;;;;;;4906731;29;20232;-86
2023/06/15 02:30:53;;;;;;;9.88;9.57;;;13.80;99.90;;;;;;4906043;29;20319;-85
2023/06/15 02:33:21;;;;;;;10.13;9.83;;;13.80;99.90;;;;;;4906632;29;20292;-86
2023/06/15 02:35:49;;;;;;;10.10;9.80;;;13.70;99.90;;;;;;4906370;29;20228;-86
2023/06/15 02:38:20;;;;;;;9.90;9.60;;;13.70;99.90;;;;;;4905993;29;20236;-86
2023/06/15 02:40:48;;;;;;;10.00;9.70;;;13.70;99.90;;;;;;4885576;29;21203;-86
2023/06/15 02:43:17;;;;;;;10.73;10.43;;;13.60;99.90;;;;;;4897398;29;20232;-85
2023/06/15 02:45:48;;;;;;;10.50;10.20;;;13.60;99.90;;;;;;4897987;29;20232;-85
2023/06/15 02:48:26;;;;;;;10.43;10.13;;;13.50;99.90;;;;;;4906261;29;20296;-86
2023/06/15 02:50:55;;;;;;;10.80;10.50;;;13.50;99.90;;;;;;4900938;29;20251;-85
2023/06/15 02:53:24;;;;;;;10.60;10.30;;;13.50;99.90;;;;;;4894761;29;20244;-85
2023/06/15 02:55:53;;;;;;;10.80;10.50;;;13.40;99.90;;;;;;4887343;29;20781;-86
2023/06/15 02:58:24;;;;;;;11.10;10.80;;;13.40;99.90;;;;;;4902296;29;20244;-86
2023/06/15 03:00:53;;;;;;;10.80;10.50;;;13.30;99.90;;;;;;4891163;29;20283;-86
2023/06/15 03:03:27;;;;;;;11.00;10.70;;;13.30;99.90;;;;;;4893263;29;20237;-86
2023/06/15 03:06:00;;;;;;;11.10;10.80;;;13.30;99.90;;;;;;4868093;29;20241;-86
2023/06/15 03:08:31;;;;;;;11.10;10.80;;;13.30;99.90;;;;;;4877169;29;21040;-85
2023/06/15 03:10:59;;;;;;;10.87;10.57;;;13.20;99.90;;;;;;4897547;29;20247;-86
2023/06/15 03:13:29;;;;;;;10.83;10.53;;;13.20;99.90;;;;;;4907102;29;20223;-85
2023/06/15 03:16:00;;;;;;;10.90;10.60;;;13.20;99.90;;;;;;4901667;29;20229;-86
2023/06/15 03:18:31;;;;;;;10.90;10.60;;;13.10;99.90;;;;;;4895473;29;20919;-85
2023/06/15 03:20:58;;;;;;;10.63;10.33;;;13.10;99.90;;;;;;4900549;29;20272;-86
2023/06/15 03:23:27;;;;;;;11.27;10.97;;;13.10;99.90;;;;;;4886799;29;20224;-86
2023/06/15 03:25:56;;;;;;;10.97;10.67;;;13.00;99.90;;;;;;4886493;29;20247;-86
2023/06/15 03:28:27;;;;;;;10.80;10.50;;;13.00;99.90;;;;;;4902632;29;20235;-86
2023/06/15 03:30:56;;;;;;;10.73;10.43;;;13.00;99.90;;;;;;4904749;29;20244;-86
2023/06/15 03:33:25;;;;;;;11.00;10.70;;;13.00;99.90;;;;;;4903690;29;20241;-86
2023/06/15 03:35:57;;;;;;;11.03;10.73;;;13.00;99.90;;;;;;4894778;29;20252;-86
2023/06/15 03:38:25;;;;;;;10.60;10.30;;;13.00;99.90;;;;;;4900377;29;20236;-86
2023/06/15 03:40:53;;;;;;;10.30;10.00;;;12.80;99.90;;;;;;4911961;28;20221;-85
2023/06/15 03:43:22;;;;;;;10.80;10.50;;;12.80;99.90;;;;;;4919891;28;20218;-85
2023/06/15 03:45:51;;;;;;;10.50;10.20;;;12.80;99.90;;;;;;4886610;29;20246;-83
2023/06/15 03:48:21;;;;;;;10.83;10.53;;;12.70;99.90;;;;;;4887187;29;20213;-84
2023/06/15 03:50:50;;;;;;;10.90;10.60;;;12.70;99.90;;;;;;4885117;29;20237;-86
2023/06/15 03:53:28;;;;;;;10.90;10.60;;;12.70;99.90;;;;;;4875612;29;20324;-86
2023/06/15 03:55:57;;;;;;;10.77;10.47;;;12.80;99.90;;;;;;4880254;29;20244;-86
2023/06/15 03:58:27;;;;;;;11.13;10.83;;;12.90;99.90;;;;;;4886307;29;20300;-86
2023/06/15 04:00:57;;;;;;;10.90;10.60;;;12.80;99.90;;;;;;4892453;29;20243;-86
2023/06/15 04:03:26;;;;;;;10.90;10.60;;;12.90;99.90;;;;;;4901753;29;20291;-86
2023/06/15 04:05:55;;;;;;;10.97;10.67;;;12.90;99.90;;;;;;4894221;29;20308;-85
2023/06/15 04:08:34;;;;;;;11.10;10.80;;;12.90;99.90;;;;;;4886088;29;20233;-86
2023/06/15 04:11:03;;;;;;;11.40;11.00;;;13.00;99.90;;;;;;4884627;29;20403;-86
2023/06/15 04:13:32;;;;;;;11.27;10.97;;;13.00;99.90;;;;;;4904820;29;20228;-86
2023/06/15 04:16:05;;;;;;;11.10;10.80;;;13.10;99.90;;;;;;4905173;29;20243;-86
2023/06/15 04:18:33;;;;;;;11.37;10.97;;;13.10;99.90;;;;;;4905244;29;20247;-86
2023/06/15 04:21:02;;;;;;;11.20;10.90;;;13.20;99.90;;;;;;4901151;29;20229;-86
2023/06/15 04:26:19;;;;;;;11.50;11.10;;;13.30;99.90;;;;;;4878042;29;20323;-86
2023/06/15 04:28:49;;;;;;;11.03;10.73;;;13.40;99.90;;;;;;4890231;29;20240;-86
2023/06/15 04:31:21;;;;;;;10.80;10.50;;;13.30;99.90;;;;;;4896545;29;20224;-86
2023/06/15 04:33:49;;;;;;;10.90;10.60;;;13.40;99.90;;;;;;4893185;29;21006;-86
2023/06/15 04:36:17;;;;;;;11.00;10.70;;;13.40;99.90;;;;;;4908358;29;20240;-86
2023/06/15 04:41:35;;;;;;;10.87;10.57;;;13.50;99.90;;;;;;4907987;29;20283;-86
2023/06/15 04:44:04;;;;;;;10.73;10.43;;;13.60;99.90;;;;;;4910867;29;20231;-87
2023/06/15 04:46:33;;;;;;;10.90;10.60;;;13.70;99.90;;;;;;4908251;29;20232;-86
2023/06/15 04:49:03;;;;;;;11.10;10.80;;;13.80;99.90;;;;;;4908192;29;20250;-87
2023/06/15 05:13:21;;;;;;;10.77;10.48;;;14.10;99.90;;;;;;4905661;29;20268;-85
2023/06/15 05:15:50;;;;;;;11.10;10.80;;;14.30;99.90;;;;;;4899124;29;20240;-85
2023/06/15 05:18:20;;;;;;;11.25;10.95;;;14.40;99.90;;;;;;4915545;29;20236;-84
2023/06/15 05:20:50;;;;;;;11.00;10.70;;;14.60;99.90;;;;;;4891426;29;20247;-84
2023/06/15 05:23:20;;;;;;;11.00;10.70;;;14.70;99.90;;;;;;4893115;29;20233;-87
2023/06/15 05:29:21;;;;;;;10.90;10.60;;;15.00;99.90;;;;;;4875076;29;20248;-85
2023/06/15 05:31:49;;;;;;;11.00;10.70;;;15.30;99.90;;;;;;4883702;29;20236;-86
2023/06/15 05:34:18;;;;;;;10.90;10.60;;;15.40;99.90;;;;;;4890662;29;20256;-85
2023/06/15 05:36:49;;;;;;;11.00;10.70;;;15.60;99.90;;;;;;4895479;29;20265;-86
2023/06/15 05:39:17;;;;;;;10.80;10.50;;;15.70;99.90;;;;;;4896447;29;20241;-83
2023/06/15 05:41:46;;;;;;;10.55;10.25;;;15.80;99.90;;;;;;4895394;29;20236;-85
2023/06/15 05:47:03;;;;;;;10.50;10.20;;;16.00;99.90;;;;;;4890618;29;20256;-83
2023/06/15 05:49:32;;;;;;;10.52;10.23;;;16.20;99.90;;;;;;4890512;29;20240;-84
2023/06/15 05:52:02;;;;;;;10.80;10.50;;;16.30;99.90;;;;;;4902556;29;20306;-85
2023/06/15 05:54:31;;;;;;;10.40;10.10;;;16.40;99.90;;;;;;4879791;29;20240;-86
2023/06/15 05:57:01;;;;;;;10.43;10.13;;;16.60;99.90;;;;;;4900441;29;20229;-85
2023/06/15 05:59:32;;;;;;;10.52;10.23;;;16.80;99.90;;;;;;4885106;29;20241;-85
2023/06/15 06:02:09;;;;;;;10.60;10.30;;;17.00;99.90;;;;;;4895037;29;20221;-86
2023/06/15 06:04:38;;;;;;;10.50;10.20;;;17.10;99.90;;;;;;4886007;29;20240;-86
2023/06/15 06:07:07;;;;;;;10.32;10.02;;;17.10;99.90;;;;;;4894454;29;20233;-84
2023/06/15 06:09:37;;;;;;;10.40;10.10;;;17.20;99.90;;;;;;4895289;29;20243;-86
2023/06/15 06:12:09;;;;;;;10.68;10.38;;;17.20;99.90;;;;;;4900634;29;20240;-86
2023/06/15 06:14:38;;;;;;;10.40;10.10;;;17.30;99.90;;;;;;4901602;29;20384;-84
2023/06/15 06:17:06;;;;;;;10.70;10.40;;;17.40;99.90;;;;;;4902851;29;20234;-85
2023/06/15 06:19:36;;;;;;;10.68;10.38;;;17.50;99.90;;;;;;4887001;29;20245;-85
2023/06/15 06:22:05;;;;;;;10.70;10.40;;;17.70;99.90;;;;;;4886648;29;20244;-86
2023/06/15 06:24:35;;;;;;;10.70;10.40;;;17.70;99.90;;;;;;4894305;29;20233;-85
2023/06/15 06:27:05;;;;;;;10.68;10.38;;;17.70;99.90;;;;;;4899048;29;20228;-85
2023/06/15 06:29:33;;;;;;;10.38;10.07;;;17.80;99.90;;;;;;4908014;29;20236;-86
2023/06/15 06:32:20;;;;;;;10.35;10.05;;;17.80;99.90;;;;;;4896467;29;20236;-86
2023/06/15 06:34:51;;;;;;;10.30;10.00;;;17.80;99.90;;;;;;4894632;29;20237;-84
2023/06/15 06:37:21;;;;;;;10.00;9.70;;;17.90;99.90;;;;;;4887193;29;20224;-87
2023/06/15 06:39:49;;;;;;;9.98;9.68;;;17.90;99.90;;;;;;4881782;29;20332;-89
2023/06/15 06:42:18;;;;;;;10.05;9.75;;;18.10;99.90;;;;;;4896408;29;20297;-87
2023/06/15 06:44:49;;;;;;;10.05;9.75;;;18.20;99.90;;;;;;4916359;29;20220;-85
2023/06/15 06:47:26;;;;;;;10.10;9.80;;;18.30;99.90;;;;;;4905565;29;20274;-85
2023/06/15 06:49:55;;;;;;;10.27;9.98;;;18.40;99.90;;;;;;4905099;29;20236;-85
2023/06/15 06:52:27;;;;;;;10.10;9.80;;;18.40;99.90;;;;;;4920943;29;20240;-86
2023/06/15 06:54:55;;;;;;;10.10;9.80;;;18.50;99.90;;;;;;4906525;29;20249;-88
2023/06/15 06:57:25;;;;;;;10.02;9.73;;;18.70;99.90;;;;;;4896901;29;20232;-85
2023/06/15 06:59:53;;;;;;;9.90;9.60;;;18.90;99.90;;;;;;4903884;29;20251;-87
2023/06/15 07:02:32;;;;;;;10.05;9.75;;;18.90;99.90;;;;;;4891716;29;20240;-87
2023/06/15 07:05:02;;;;;;;9.93;9.63;;;19.00;99.90;;;;;;4889121;29;20225;-87
2023/06/15 07:07:31;;;;;;;9.93;9.63;;;19.10;99.90;;;;;;4886727;29;20515;-86
2023/06/15 07:10:01;;;;;;;10.02;9.73;;;19.20;99.90;;;;;;4891520;29;20296;-88
2023/06/15 07:12:30;;;;;;;10.00;9.70;;;19.30;99.90;;;;;;4892288;29;20240;-88
2023/06/15 07:15:08;;;;;;;10.10;9.80;;;19.40;99.90;;;;;;4899772;29;20221;-87
2023/06/15 07:17:49;;;;;;;10.38;10.07;;;19.40;99.90;;;;;;4899580;29;20260;-87
2023/06/15 07:20:17;;;;;;;10.30;10.00;;;19.50;99.90;;;;;;4897181;29;20249;-88
2023/06/15 07:22:53;;;;;;;10.20;9.90;;;19.70;99.90;;;;;;4889550;29;20347;-89
2023/06/15 07:25:34;;;;;;;10.02;9.73;;;19.80;99.90;;;;;;4889508;29;20228;-87
2023/06/15 07:28:04;;;;;;;10.13;9.82;;;19.80;99.90;;;;;;4897170;29;20295;-88
2023/06/15 07:30:51;;;;;;;10.30;10.00;;;19.80;99.90;;;;;;4889340;29;20272;-90
2023/06/15 07:33:28;;;;;;;10.70;10.40;;;19.90;99.90;;;;;;4900404;29;20340;-87
2023/06/15 07:36:15;;;;;;;;;;;;;;;;;;;;;
2023/06/15 07:38:43;;;;;;;10.93;10.63;;;20.10;99.90;;;;;;4898340;29;20228;-88
2023/06/15 07:41:24;;;;;;;10.60;10.30;;;20.00;99.90;;;;;;4891719;29;20241;-87
2023/06/15 07:44:02;;;;;;;10.70;10.40;;;20.00;99.90;;;;;;4898773;29;20304;-88
2023/06/15 07:46:32;;;;;;;11.00;10.70;;;20.10;99.90;;;;;;4905236;29;20228;-89
2023/06/15 07:51:47;;;;;;;10.52;10.23;;;20.40;99.90;;;;;;4904952;29;20244;-89
2023/06/15 07:54:15;;;;;;;10.30;10.00;;;20.50;99.90;;;;;;4905465;29;20227;-89
2023/06/15 07:56:45;;;;;;;9.95;9.65;;;20.70;99.90;;;;;;4897241;29;20241;-88
2023/06/15 07:59:14;;;;;;;10.00;9.70;;;20.80;99.90;;;;;;4896954;29;20232;-88
2023/06/15 08:01:43;;;;;;;10.10;9.80;;;20.70;99.90;;;;;;4908551;29;20262;-86
2023/06/15 08:04:24;;;;;;;10.20;9.90;;;20.70;99.90;;;;;;4908058;29;20292;-87
2023/06/15 08:06:51;;;;;;;10.18;9.88;;;20.90;99.90;;;;;;4908135;29;20300;-85
2023/06/15 08:09:22;;;;;;;10.10;9.80;;;21.00;99.90;;;;;;4909415;29;20224;-83
2023/06/15 08:11:50;;;;;;;10.13;9.82;;;21.20;99.90;;;;;;4900325;29;20252;-83
2023/06/15 08:14:20;;;;;;;10.05;9.75;;;21.30;99.90;;;;;;4899782;29;20272;-82
2023/06/15 08:16:50;;;;;;;10.10;9.80;;;21.40;99.90;;;;;;4883310;29;20228;-85
2023/06/15 08:19:31;;;;;;;10.38;10.07;;;21.60;99.90;;;;;;4892515;29;20297;-84
2023/06/15 08:21:59;;;;;;;10.70;10.40;;;21.70;99.90;;;;;;4892932;29;20236;-84
2023/06/15 08:24:28;;;;;;;10.60;10.30;;;21.60;99.90;;;;;;4891485;29;20233;-84
2023/06/15 08:26:59;;;;;;;10.48;10.18;;;21.60;99.90;;;;;;4891157;29;20262;-85
2023/06/15 08:29:26;;;;;;;10.52;10.23;;;21.70;99.90;;;;;;4899599;29;20236;-85
2023/06/15 08:32:11;;;;;;;10.70;10.40;;;21.60;99.90;;;;;;4892422;29;20268;-86
2023/06/15 08:37:39;;;;;;;10.88;10.57;;;21.80;99.90;;;;;;4891335;29;20236;-83
2023/06/15 08:40:09;;;;;;;10.73;10.43;;;22.00;99.90;;;;;;4902292;29;20257;-85
2023/06/15 08:42:39;;;;;;;10.85;10.55;;;22.20;99.90;;;;;;4902945;29;20232;-83
2023/06/15 08:48:33;;;;;;;10.73;10.43;;;22.60;99.90;;;;;;5145015;27;20528;-85
2023/06/15 08:51:07;;;;;;;10.70;10.40;;;22.80;99.90;;;;;;5139280;27;20258;-81
2023/06/15 08:53:48;;;;;;;10.88;10.57;;;23.10;99.90;;;;;;5144046;27;20242;-83
2023/06/15 08:56:16;;;;;;;10.68;10.38;;;23.40;99.90;;;;;;5139563;27;20220;-85
2023/06/15 08:58:49;;;;;;;10.70;10.40;;;23.60;99.90;;;;;;5156701;27;20243;-83
2023/06/15 09:01:22;;;;;;;10.43;10.13;;;23.70;99.90;;;;;;5163775;27;20235;-84
2023/06/15 09:04:03;;;;;;;10.10;9.80;;;23.70;99.90;;;;;;5161837;27;20292;-82
2023/06/15 09:06:31;;;;;;;10.20;9.90;;;24.00;99.90;;;;;;5142275;27;20230;-84
2023/06/15 09:09:00;;;;;;;10.30;10.00;;;23.60;99.90;;;;;;5162612;27;20215;-83
2023/06/15 09:11:30;;;;;;;10.10;9.80;;;23.40;99.90;;;;;;5164444;27;20234;-85
2023/06/15 09:13:59;;;;;;;10.40;10.10;;;23.40;99.90;;;;;;5177255;27;20215;-85
2023/06/15 09:16:28;;;;;;;10.40;10.10;;;23.50;99.90;;;;;;5174950;27;20224;-84
2023/06/15 09:19:11;;;;;;;10.30;10.00;;;23.90;99.90;;;;;;5163252;27;20278;-84
2023/06/15 09:21:44;;;;;;;10.27;9.98;;;24.30;99.90;;;;;;5166124;27;20311;-84
2023/06/15 09:24:14;;;;;;;10.27;9.98;;;24.70;99.90;;;;;;5166559;27;20298;-84
2023/06/15 09:26:43;;;;;;;10.07;9.77;;;24.90;99.90;;;;;;5163909;27;20227;-83
2023/06/15 09:29:12;;;;;;;10.43;10.13;;;24.90;99.90;;;;;;5161900;27;20287;-87
2023/06/15 09:31:42;;;;;;;10.35;10.05;;;24.60;99.90;;;;;;5161885;27;20238;-86
2023/06/15 09:36:58;;;;;;;10.38;10.07;;;25.10;99.90;;;;;;5160169;27;20254;-84
2023/06/15 09:39:28;;;;;;;10.10;9.80;;;25.20;99.90;;;;;;5161744;27;20224;-84
2023/06/15 09:42:00;;;;;;;10.05;9.75;;;25.30;99.90;;;;;;5163198;27;20242;-84
2023/06/15 09:44:29;;;;;;;10.25;9.95;;;25.40;99.90;;;;;;5162186;27;20297;-85
2023/06/15 09:47:08;;;;;;;10.27;9.98;;;25.50;99.90;;;;;;5161753;27;20228;-83
2023/06/15 09:49:38;;;;;;;10.25;9.95;;;25.80;99.90;;;;;;5162713;27;20223;-84
2023/06/15 09:52:07;;;;;;;10.43;10.13;;;26.10;99.90;;;;;;5163018;27;20251;-84
2023/06/15 09:54:35;;;;;;;10.30;10.00;;;26.10;99.90;;;;;;5161987;27;20212;-83
2023/06/15 09:57:14;;;;;;;10.02;9.73;;;26.20;99.90;;;;;;5163462;27;20224;-83
2023/06/15 09:59:41;;;;;;;10.20;9.90;;;26.20;99.90;;;;;;5127667;27;20238;-85
2023/06/15 10:02:13;;;;;;;10.35;10.05;;;25.90;99.90;;;;;;5127285;27;20288;-83
2023/06/15 10:04:49;;;;;;;10.60;10.30;;;25.60;99.90;;;;;;5126900;28;20225;-84
2023/06/15 10:07:20;;;;;;;10.45;10.15;;;25.50;99.90;;;;;;5128293;28;20225;-84
2023/06/15 10:09:50;;;;;;;10.60;10.30;;;25.50;99.90;;;;;;5126122;28;20229;-84
2023/06/15 10:12:20;;;;;;;10.32;10.02;;;26.00;99.90;;;;;;5136546;27;20262;-82
2023/06/15 10:14:55;;;;;;;10.38;10.07;;;26.20;99.90;;;;;;5118934;28;20289;-84
2023/06/15 10:17:32;;;;;;;10.70;10.40;;;26.50;99.90;;;;;;5128580;28;20240;-82
2023/06/15 10:20:08;;;;;;;10.40;10.10;;;26.40;99.90;;;;;;5129691;28;20254;-84
2023/06/15 10:22:45;;;;;;;10.10;9.80;;;26.50;99.90;;;;;;5140849;28;20250;-82
2023/06/15 10:25:13;;;;;;;10.32;10.02;;;26.60;99.90;;;;;;5129951;28;20224;-86
2023/06/15 10:27:42;;;;;;;10.30;10.00;;;26.60;99.90;;;;;;5128241;28;20229;-86
2023/06/15 10:30:21;;;;;;;10.60;10.30;;;26.50;99.90;;;;;;5127135;28;20232;-85
2023/06/15 10:32:59;;;;;;;10.40;10.10;;;26.40;99.90;;;;;;5127749;28;20225;-85
2023/06/15 10:35:38;;;;;;;10.27;9.98;;;26.30;99.90;;;;;;5127881;28;20216;-86
2023/06/15 10:38:23;;;;;;;10.13;9.82;;;26.60;99.90;;;;;;5127452;28;20247;-85
2023/06/15 10:40:53;;;;;;;10.38;10.07;;;26.80;99.90;;;;;;5127937;28;20232;-85
2023/06/15 10:43:23;;;;;;;10.60;10.30;;;27.10;99.90;;;;;;5132897;28;20229;-84
2023/06/15 10:45:52;;;;;;;10.07;9.77;;;27.10;99.90;;;;;;5137058;28;20254;-84
2023/06/15 10:48:26;;;;;;;10.60;10.30;;;26.70;99.90;;;;;;5125956;28;20255;-87
2023/06/15 10:51:05;;;;;;;10.55;10.25;;;26.60;99.90;;;;;;5148005;22;20236;-80
2023/06/15 10:53:38;;;;;;;10.40;10.10;;;26.90;99.90;;;;;;5123302;28;20258;-79
2023/06/15 10:56:16;;;;;;;10.40;10.10;;;27.20;99.90;;;;;;5134741;28;20234;-80
2023/06/15 10:58:56;;;;;;;10.40;10.10;;;27.40;99.90;;;;;;5128462;28;20278;-80
2023/06/15 11:01:25;;;;;;;10.20;9.90;;;27.40;99.90;;;;;;5125117;28;20228;-79
2023/06/15 11:03:54;;;;;;;10.45;10.15;;;27.50;99.90;;;;;;5123221;27;21225;-80
2023/06/15 11:06:32;;;;;;;10.40;10.10;;;27.60;99.90;;;;;;5115053;28;20232;-80
2023/06/15 11:09:05;;;;;;;10.73;10.43;;;27.50;99.90;;;;;;5111950;28;20219;-80
2023/06/15 11:11:39;;;;;;;10.60;10.30;;;27.10;99.90;;;;;;5104633;28;20241;-79
2023/06/15 11:14:08;;;;;;;10.30;10.00;;;26.50;99.90;;;;;;5112399;28;20225;-80
2023/06/15 11:16:38;;;;;;;10.10;9.80;;;26.50;99.90;;;;;;5116470;28;20232;-80
2023/06/15 11:19:28;;;;;;;10.50;10.20;;;26.70;99.90;;;;;;5125010;28;20228;-79
2023/06/15 11:22:04;;;;;;;10.55;10.25;;;27.00;99.90;;;;;;5126863;28;20232;-81
2023/06/15 11:24:44;;;;;;;10.38;10.07;;;27.10;99.90;;;;;;5127310;27;20291;-79
2023/06/15 11:27:13;;;;;;;10.25;9.95;;;27.30;99.90;;;;;;5126818;28;20285;-80
2023/06/15 11:29:43;;;;;;;10.35;10.05;;;27.40;99.90;;;;;;5126349;28;20229;-80
2023/06/15 11:32:11;;;;;;;10.75;10.45;;;27.60;99.90;;;;;;5117826;28;20234;-80
2023/06/15 11:34:40;;;;;;;10.80;10.50;;;27.60;99.90;;;;;;5106097;28;20225;-78
2023/06/15 11:37:14;;;;;;;10.80;10.50;;;27.70;99.90;;;;;;5106861;28;20233;-79
2023/06/15 11:39:46;;;;;;;11.27;10.98;;;27.90;99.90;;;;;;5104998;28;20287;-78
2023/06/15 11:42:15;;;;;;;11.00;10.70;;;27.90;99.90;;;;;;5106403;28;20226;-79
2023/06/15 11:44:44;;;;;;;11.18;10.88;;;28.30;99.90;;;;;;5121661;28;20301;-81
2023/06/15 11:47:12;;;;;;;11.00;10.70;;;28.60;99.90;;;;;;5109194;28;20229;-80
2023/06/15 11:49:41;;;;;;;11.07;10.77;;;28.80;99.90;;;;;;5111128;28;20280;-80
2023/06/15 11:52:11;;;;;;;11.02;10.73;;;28.90;99.90;;;;;;5107945;28;20287;-80
2023/06/15 11:54:42;;;;;;;10.88;10.57;;;29.00;99.90;;;;;;5102806;28;20226;-79
2023/06/15 11:57:14;;;;;;;11.00;10.70;;;29.10;99.90;;;;;;5103976;28;20226;-81
2023/06/15 11:59:42;;;;;;;11.10;10.80;;;29.30;99.90;;;;;;5105048;28;20283;-80
2023/06/15 12:02:12;;;;;;;11.20;10.90;;;29.70;99.90;;;;;;5105590;28;20287;-81
2023/06/15 12:04:41;;;;;;;11.15;10.85;;;30.00;99.90;;;;;;5106496;28;20264;-80
2023/06/15 12:07:11;;;;;;;11.05;10.75;;;30.00;99.90;;;;;;5109434;28;20229;-79
2023/06/15 12:09:42;;;;;;;10.77;10.48;;;30.20;99.90;;;;;;5111954;28;20261;-81
2023/06/15 12:12:28;;;;;;;10.93;10.63;;;30.20;99.90;;;;;;5106727;28;20243;-79
2023/06/15 12:14:56;;;;;;;11.00;10.70;;;30.10;99.90;;;;;;5105843;28;20232;-77
2023/06/15 12:17:29;;;;;;;10.65;10.35;;;30.20;99.90;;;;;;5103103;28;20263;-79
2023/06/15 12:20:01;;;;;;;10.88;10.57;;;30.00;99.90;;;;;;5104064;28;20204;-78
2023/06/15 12:22:43;;;;;;;10.93;10.63;;;30.20;99.90;;;;;;5103692;28;20357;-77
2023/06/15 12:25:12;;;;;;;10.70;10.40;;;30.10;99.90;;;;;;5105178;28;20264;-79
2023/06/15 12:27:44;;;;;;;10.90;10.60;;;30.30;99.90;;;;;;5103858;28;20411;-79
2023/06/15 12:30:15;;;;;;;11.18;10.88;;;30.80;99.90;;;;;;5104333;28;20217;-78
2023/06/15 12:32:47;;;;;;;10.77;10.48;;;30.10;99.90;;;;;;5108909;28;20292;-78
2023/06/15 12:35:37;;;;;;;11.07;10.77;;;29.70;99.90;;;;;;5103701;28;20268;-77
2023/06/15 12:38:07;;;;;;;11.10;10.80;;;29.70;99.90;;;;;;5100383;28;20276;-77
2023/06/15 12:40:40;;;;;;;10.98;10.68;;;29.80;99.90;;;;;;5101145;28;20295;-78
2023/06/15 12:43:08;;;;;;;10.77;10.48;;;30.00;99.90;;;;;;5103028;28;20287;-79
2023/06/15 12:45:35;;;;;;;10.80;10.50;;;30.30;99.90;;;;;;5103725;28;20233;-78
2023/06/15 12:48:05;;;;;;;10.45;10.15;;;30.30;99.90;;;;;;5103770;28;20253;-80
2023/06/15 12:50:33;;;;;;;10.80;10.50;;;30.60;99.90;;;;;;5103782;28;20722;-80
2023/06/15 12:53:02;;;;;;;10.80;10.50;;;31.20;99.90;;;;;;5109842;28;20225;-79
2023/06/15 12:55:34;;;;;;;10.55;10.25;;;31.10;99.90;;;;;;5118396;28;20240;-80
2023/06/15 12:58:03;;;;;;;10.48;10.18;;;31.40;99.90;;;;;;5123588;28;20240;-80
2023/06/15 13:00:32;;;;;;;10.70;10.40;;;31.50;99.90;;;;;;5120674;28;20229;-79
2023/06/15 13:03:05;;;;;;;10.68;10.38;;;31.50;99.90;;;;;;5122878;28;20225;-79
2023/06/15 13:05:33;;;;;;;11.10;10.80;;;31.50;99.90;;;;;;5114560;28;20236;-79
2023/06/15 13:08:02;;;;;;;11.13;10.82;;;31.60;99.90;;;;;;5125118;28;20229;-78
2023/06/15 13:10:32;;;;;;;11.18;10.88;;;31.50;99.90;;;;;;5115452;27;20308;-80
2023/06/15 13:13:00;;;;;;;10.90;10.60;;;31.40;99.90;;;;;;5105968;28;20236;-79
2023/06/15 13:15:30;;;;;;;11.00;10.70;;;31.20;99.90;;;;;;5106085;28;20293;-79
2023/06/15 13:17:58;;;;;;;10.80;10.50;;;30.90;99.90;;;;;;5105940;28;20242;-81
2023/06/15 13:20:26;;;;;;;10.90;10.60;;;30.80;99.90;;;;;;5106649;28;20251;-79
2023/06/15 13:22:59;;;;;;;10.50;10.20;;;30.40;99.90;;;;;;5106785;28;20225;-82
2023/06/15 13:25:26;;;;;;;10.80;10.50;;;29.60;99.90;;;;;;5118858;28;20233;-79
2023/06/15 13:27:56;;;;;;;10.90;10.60;;;29.00;99.90;;;;;;5115928;28;20228;-79
2023/06/15 13:30:25;;;;;;;10.90;10.60;;;28.50;99.90;;;;;;5108562;28;20233;-78
2023/06/15 13:32:54;;;;;;;11.18;10.88;;;27.90;99.90;;;;;;5106663;28;20301;-78
2023/06/15 13:35:22;;;;;;;11.20;10.90;;;27.60;99.90;;;;;;5111214;28;20229;-79
2023/06/15 13:37:50;;;;;;;11.18;10.88;;;27.40;99.90;;;;;;5113622;28;20348;-78
2023/06/15 13:40:17;;;;;;;11.15;10.85;;;27.20;99.90;;;;;;5133763;28;20216;-78
2023/06/15 13:42:45;;;;;;;11.20;10.90;;;27.00;99.90;;;;;;5117692;28;20263;-78